createdAt,value
2018-03-27T00:00:20.506Z,61.30
2018-03-27T00:02:47.962Z,56.10
2018-03-27T00:05:15.419Z,55.93
2018-03-27T00:07:43.553Z,55.17
2018-03-27T00:10:11.006Z,54.60
2018-03-27T00:12:38.472Z,57.70
2018-03-27T00:15:05.933Z,58.17
2018-03-27T00:17:33.397Z,56.67
2018-03-27T00:20:00.856Z,60.37
2018-03-27T00:22:28.309Z,56.37
2018-03-27T00:24:55.769Z,55.27
2018-03-27T00:27:35.010Z,56.73
2018-03-27T00:30:14.518Z,60.83
2018-03-27T00:32:53.867Z,59.07
2018-03-27T00:35:33.274Z,50.67
2018-03-27T00:38:13.468Z,62.67
2018-03-27T00:40:43.376Z,58.93
2018-03-27T00:43:14.584Z,59.00
2018-03-27T00:45:42.804Z,61.33
2018-03-27T00:48:10.272Z,60.40
2018-03-27T00:50:37.738Z,51.13
2018-03-27T00:53:05.200Z,56.20
2018-03-27T00:55:32.659Z,54.60
2018-03-27T00:58:00.130Z,56.13
2018-03-27T01:00:27.599Z,54.00
2018-03-27T01:02:55.834Z,57.50
2018-03-27T01:05:23.289Z,59.77
2018-03-27T01:07:50.761Z,51.30
2018-03-27T01:10:18.217Z,51.87
2018-03-27T01:12:45.682Z,52.53
2018-03-27T01:15:13.133Z,56.23
2018-03-27T01:17:40.582Z,55.43
2018-03-27T01:20:08.060Z,56.07
2018-03-27T01:22:35.517Z,54.80
2018-03-27T01:25:02.989Z,58.13
2018-03-27T01:27:31.202Z,55.30
2018-03-27T01:29:58.682Z,56.97
2018-03-27T01:32:26.120Z,56.33
2018-03-27T01:34:53.585Z,58.70
2018-03-27T01:37:21.056Z,54.30
2018-03-27T01:39:48.504Z,55.63
2018-03-27T01:42:15.962Z,51.70
2018-03-27T01:44:43.422Z,52.93
2018-03-27T01:47:10.875Z,52.40
2018-03-27T01:49:38.352Z,59.03
2018-03-27T01:52:05.831Z,52.23
2018-03-27T01:54:34.057Z,53.70
2018-03-27T01:57:01.506Z,55.70
2018-03-27T01:59:28.973Z,52.87
2018-03-27T02:01:56.417Z,56.90
2018-03-27T02:04:23.880Z,50.00
2018-03-27T02:06:51.341Z,50.63
2018-03-27T02:09:18.802Z,49.03
2018-03-27T02:11:51.816Z,52.20
2018-03-27T02:14:25.072Z,49.30
2018-03-27T02:16:58.265Z,50.53
2018-03-27T02:19:31.462Z,48.50
2018-03-27T02:21:58.417Z,57.23
2018-03-27T02:24:27.682Z,50.23
2018-03-27T02:26:55.134Z,46.77
2018-03-27T02:29:22.601Z,51.50
2018-03-27T02:31:50.054Z,53.77
2018-03-27T02:34:17.522Z,53.20
2018-03-27T02:36:44.983Z,53.13
2018-03-27T02:39:12.450Z,52.97
2018-03-27T02:41:39.915Z,48.93
2018-03-27T02:44:07.389Z,50.20
2018-03-27T02:46:35.602Z,52.10
2018-03-27T02:49:03.060Z,44.60
2018-03-27T02:51:30.526Z,47.17
2018-03-27T02:53:57.968Z,50.63
2018-03-27T02:56:25.433Z,45.63
2018-03-27T02:58:52.903Z,45.33
2018-03-27T03:01:20.358Z,46.03
2018-03-27T03:03:47.821Z,47.27
2018-03-27T03:06:15.274Z,42.53
2018-03-27T03:08:42.729Z,41.90
2018-03-27T03:11:10.205Z,47.83
2018-03-27T03:13:37.665Z,48.30
2018-03-27T03:16:05.125Z,41.80
2018-03-27T03:18:32.581Z,47.90
2018-03-27T03:21:00.036Z,47.20
2018-03-27T03:23:27.482Z,47.67
2018-03-27T03:25:54.949Z,46.60
2018-03-27T03:28:22.405Z,49.77
2018-03-27T03:30:49.869Z,45.40
2018-03-27T03:33:17.317Z,47.70
2018-03-27T03:35:44.778Z,44.23
2018-03-27T03:38:12.226Z,49.07
2018-03-27T03:40:39.684Z,45.80
2018-03-27T03:43:07.144Z,47.37
2018-03-27T03:45:34.636Z,47.17
2018-03-27T03:48:02.066Z,48.33
2018-03-27T03:50:29.525Z,45.67
2018-03-27T03:52:56.969Z,46.47
2018-03-27T03:55:24.440Z,48.20
2018-03-27T03:57:51.894Z,48.17
2018-03-27T04:00:19.426Z,50.03
2018-03-27T04:02:47.576Z,47.07
2018-03-27T04:05:15.054Z,46.13
2018-03-27T04:07:42.516Z,41.43
2018-03-27T04:10:10.758Z,43.70
2018-03-27T04:12:38.213Z,43.17
2018-03-27T04:15:05.669Z,40.10
2018-03-27T04:17:33.141Z,44.37
2018-03-27T04:20:00.597Z,43.37
2018-03-27T04:22:28.073Z,45.50
2018-03-27T04:24:55.525Z,50.10
2018-03-27T04:27:23.758Z,46.50
2018-03-27T04:29:51.205Z,48.27
2018-03-27T04:32:18.669Z,47.83
2018-03-27T04:34:46.117Z,46.73
2018-03-27T04:37:13.578Z,48.73
2018-03-27T04:39:41.033Z,50.93
2018-03-27T04:42:08.489Z,46.07
2018-03-27T04:44:35.961Z,47.47
2018-03-27T04:47:03.425Z,50.47
2018-03-27T04:49:30.882Z,46.37
2018-03-27T04:51:58.337Z,43.30
2018-03-27T04:54:25.794Z,49.37
2018-03-27T04:56:53.258Z,47.90
2018-03-27T04:59:20.719Z,47.80
2018-03-27T05:01:48.189Z,50.20
2018-03-27T05:04:15.645Z,48.83
2018-03-27T05:06:43.105Z,50.53
2018-03-27T05:09:10.556Z,46.77
2018-03-27T05:11:38.021Z,54.87
2018-03-27T05:14:05.481Z,50.83
2018-03-27T05:16:32.930Z,51.37
2018-03-27T05:19:00.386Z,51.87
2018-03-27T05:21:27.841Z,46.67
2018-03-27T05:23:56.061Z,52.60
2018-03-27T05:26:24.298Z,53.77
2018-03-27T05:28:51.748Z,56.40
2018-03-27T05:31:19.209Z,57.50
2018-03-27T05:33:46.665Z,53.53
2018-03-27T05:36:14.130Z,53.07
2018-03-27T05:38:41.603Z,54.90
2018-03-27T05:41:09.044Z,52.07
2018-03-27T05:43:36.493Z,54.07
2018-03-27T05:46:03.949Z,54.30
2018-03-27T05:48:31.405Z,53.97
2018-03-27T05:50:58.867Z,50.97
2018-03-27T05:53:26.325Z,54.37
2018-03-27T05:55:53.830Z,53.77
2018-03-27T05:58:21.250Z,56.10
2018-03-27T06:00:48.697Z,51.53
2018-03-27T06:03:16.162Z,53.03
2018-03-27T06:05:43.625Z,53.43
2018-03-27T06:08:11.857Z,54.23
2018-03-27T06:10:39.311Z,57.80
2018-03-27T06:13:06.774Z,51.27
2018-03-27T06:15:34.225Z,51.57
2018-03-27T06:18:01.688Z,56.63
2018-03-27T06:20:29.135Z,55.33
2018-03-27T06:22:56.594Z,56.90
2018-03-27T06:25:24.046Z,55.80
2018-03-27T06:27:51.504Z,56.70
2018-03-27T06:30:18.959Z,52.93
2018-03-27T06:32:46.425Z,51.77
2018-03-27T06:35:13.877Z,52.93
2018-03-27T06:37:41.341Z,50.17
2018-03-27T06:40:08.797Z,50.03
2018-03-27T06:42:36.257Z,51.87
2018-03-27T06:45:03.705Z,53.87
2018-03-27T06:47:31.169Z,52.03
2018-03-27T06:49:58.613Z,49.93
2018-03-27T06:52:26.076Z,48.93
2018-03-27T06:54:53.529Z,51.30
2018-03-27T06:57:20.993Z,46.83
2018-03-27T06:59:48.441Z,46.13
2018-03-27T07:02:15.914Z,51.17
2018-03-27T07:04:43.363Z,52.93
2018-03-27T07:07:10.819Z,44.20
2018-03-27T07:09:38.268Z,48.63
2018-03-27T07:12:05.717Z,44.77
2018-03-27T07:14:33.198Z,41.73
2018-03-27T07:17:00.630Z,43.00
2018-03-27T07:19:28.095Z,46.30
2018-03-27T07:21:55.545Z,41.93
2018-03-27T07:24:23.005Z,35.90
2018-03-27T07:26:50.452Z,41.93
2018-03-27T07:29:17.930Z,41.40
2018-03-27T07:31:45.378Z,38.67
2018-03-27T07:34:12.837Z,44.03
2018-03-27T07:36:40.314Z,46.43
2018-03-27T07:39:07.762Z,43.37
2018-03-27T07:41:35.210Z,41.43
2018-03-27T07:44:02.677Z,42.30
2018-03-27T07:46:30.126Z,45.57
2018-03-27T07:48:57.594Z,40.90
2018-03-27T07:51:25.055Z,40.90
2018-03-27T07:53:52.515Z,43.20
2018-03-27T07:56:19.961Z,39.53
2018-03-27T07:58:47.426Z,34.10
2018-03-27T08:01:14.879Z,35.97
2018-03-27T08:03:42.341Z,34.73
2018-03-27T08:06:09.799Z,34.80
2018-03-27T08:08:37.259Z,36.57
2018-03-27T08:11:04.732Z,36.67
2018-03-27T08:13:32.170Z,35.47
2018-03-27T08:15:59.624Z,35.80
2018-03-27T08:18:27.137Z,33.60
2018-03-27T08:20:54.587Z,30.93
2018-03-27T08:23:22.054Z,30.73
2018-03-27T08:25:49.511Z,26.37
2018-03-27T08:28:16.973Z,27.00
2018-03-27T08:30:44.429Z,24.37
2018-03-27T08:33:11.902Z,22.83
2018-03-27T08:35:39.353Z,24.37
2018-03-27T08:38:06.814Z,25.50
2018-03-27T08:40:34.287Z,23.03
2018-03-27T08:43:01.739Z,21.60
2018-03-27T08:45:29.225Z,21.07
2018-03-27T08:47:57.447Z,21.40
2018-03-27T08:50:24.913Z,21.40
2018-03-27T08:52:52.368Z,21.50
2018-03-27T08:55:19.830Z,26.47
2018-03-27T08:57:48.054Z,17.70
2018-03-27T09:00:15.528Z,14.93
2018-03-27T09:02:42.981Z,16.03
2018-03-27T09:05:11.221Z,19.17
2018-03-27T09:07:39.448Z,17.43
2018-03-27T09:10:06.921Z,18.80
2018-03-27T09:12:34.379Z,18.87
2018-03-27T09:15:02.650Z,19.60
2018-03-27T09:17:30.106Z,18.27
2018-03-27T09:19:57.575Z,22.10
2018-03-27T09:22:25.031Z,21.07
2018-03-27T09:24:52.490Z,19.27
2018-03-27T09:27:19.946Z,20.77
2018-03-27T09:29:47.457Z,18.80
2018-03-27T09:32:14.913Z,17.00
2018-03-27T09:34:42.387Z,19.17
2018-03-27T09:37:09.856Z,17.23
2018-03-27T09:39:37.321Z,18.20
2018-03-27T09:42:04.775Z,17.40
2018-03-27T09:44:32.242Z,16.57
2018-03-27T09:46:59.695Z,16.47
2018-03-27T09:49:27.160Z,18.53
2018-03-27T09:51:54.617Z,16.10
2018-03-27T09:54:22.152Z,15.83
2018-03-27T09:56:49.550Z,13.13
2018-03-27T09:59:17.781Z,14.90
2018-03-27T10:01:45.242Z,13.43
2018-03-27T10:04:12.709Z,13.53
2018-03-27T10:06:40.162Z,13.10
2018-03-27T10:09:07.629Z,14.50
2018-03-27T10:11:35.085Z,13.87
2018-03-27T10:14:02.550Z,14.40
2018-03-27T10:16:30.009Z,13.97
2018-03-27T10:18:57.462Z,14.90
2018-03-27T10:21:24.926Z,14.30
2018-03-27T10:23:52.376Z,13.53
2018-03-27T10:26:19.850Z,16.80
2018-03-27T10:28:48.068Z,14.50
2018-03-27T10:31:15.528Z,13.87
2018-03-27T10:33:43.030Z,14.07
2018-03-27T10:36:10.482Z,17.03
2018-03-27T10:38:37.927Z,16.63
2018-03-27T10:41:05.393Z,14.97
2018-03-27T10:43:32.853Z,16.77
2018-03-27T10:46:00.312Z,16.60
2018-03-27T10:48:27.756Z,14.90
2018-03-27T10:50:55.226Z,15.80
2018-03-27T10:53:23.446Z,16.87
2018-03-27T10:55:50.912Z,16.57
2018-03-27T10:58:18.377Z,14.97
2018-03-27T11:00:45.849Z,15.10
2018-03-27T11:03:13.309Z,15.47
2018-03-27T11:05:40.773Z,16.67
2018-03-27T11:08:08.237Z,15.40
2018-03-27T11:10:35.703Z,16.43
2018-03-27T11:13:03.927Z,17.53
2018-03-27T11:15:31.394Z,20.40
2018-03-27T11:17:58.845Z,20.07
2018-03-27T11:20:26.319Z,21.77
2018-03-27T11:22:53.779Z,20.97
2018-03-27T11:25:21.237Z,20.07
2018-03-27T11:27:48.697Z,19.40
2018-03-27T11:30:16.162Z,21.20
2018-03-27T11:32:43.621Z,24.17
2018-03-27T11:35:11.865Z,18.50
2018-03-27T11:37:39.321Z,18.03
2018-03-27T11:40:06.781Z,18.97
2018-03-27T11:42:34.237Z,20.00
2018-03-27T11:45:01.707Z,19.13
2018-03-27T11:47:29.165Z,20.77
2018-03-27T11:49:56.611Z,18.50
2018-03-27T11:52:24.081Z,19.50
2018-03-27T11:54:51.538Z,19.23
2018-03-27T11:57:18.996Z,18.30
2018-03-27T11:59:46.462Z,17.73
2018-03-27T12:02:13.921Z,18.77
2018-03-27T12:04:42.142Z,19.03
2018-03-27T12:07:09.619Z,20.13
2018-03-27T12:09:37.081Z,17.37
2018-03-27T12:12:04.546Z,16.37
2018-03-27T12:14:32.001Z,17.20
2018-03-27T12:16:59.469Z,15.37
2018-03-27T12:19:26.922Z,15.60
2018-03-27T12:21:54.389Z,16.33
2018-03-27T12:24:22.617Z,15.13
2018-03-27T12:26:50.081Z,16.33
2018-03-27T12:29:17.538Z,19.00
2018-03-27T12:31:45.060Z,14.17
2018-03-27T12:34:13.282Z,17.63
2018-03-27T12:36:40.750Z,13.40
2018-03-27T12:39:08.201Z,15.47
2018-03-27T12:41:35.669Z,13.43
2018-03-27T12:44:03.125Z,17.77
2018-03-27T12:46:30.593Z,17.27
2018-03-27T12:48:58.818Z,16.50
2018-03-27T12:51:26.289Z,15.60
2018-03-27T12:53:53.746Z,14.60
2018-03-27T12:56:21.213Z,14.33
2018-03-27T12:58:48.681Z,14.53
2018-03-27T13:01:16.179Z,16.93
2018-03-27T13:03:43.637Z,14.33
2018-03-27T13:06:11.106Z,14.07
2018-03-27T13:08:38.563Z,11.70
2018-03-27T13:11:06.035Z,11.80
2018-03-27T13:13:33.496Z,11.47
2018-03-27T13:16:00.995Z,11.27
2018-03-27T13:18:29.222Z,11.60
2018-03-27T13:20:56.710Z,11.57
2018-03-27T13:23:24.179Z,11.93
2018-03-27T13:25:51.630Z,12.10
2018-03-27T13:28:19.101Z,12.40
2018-03-27T13:30:47.317Z,11.97
2018-03-27T13:33:14.781Z,11.00
2018-03-27T13:35:42.236Z,12.10
2018-03-27T13:38:09.698Z,13.90
2018-03-27T13:40:37.154Z,11.87
2018-03-27T13:43:04.622Z,13.17
2018-03-27T13:45:32.074Z,11.83
2018-03-27T13:47:59.555Z,13.40
2018-03-27T13:50:28.501Z,12.57
2018-03-27T13:52:55.965Z,13.00
2018-03-27T13:55:23.423Z,12.10
2018-03-27T13:57:50.889Z,11.50
2018-03-27T14:00:18.351Z,12.13
2018-03-27T14:02:45.809Z,12.23
2018-03-27T14:05:13.277Z,12.23
2018-03-27T14:07:40.734Z,12.73
2018-03-27T14:10:08.199Z,13.10
2018-03-27T14:12:35.666Z,12.50
2018-03-27T14:15:03.900Z,11.50
2018-03-27T14:17:32.472Z,13.63
2018-03-27T14:19:59.930Z,11.97
2018-03-27T14:22:27.395Z,11.10
2018-03-27T14:24:54.845Z,12.13
2018-03-27T14:27:23.142Z,11.73
2018-03-27T14:29:50.604Z,11.13
2018-03-27T14:32:18.076Z,11.00
2018-03-27T14:34:46.303Z,11.70
2018-03-27T14:37:13.777Z,10.87
2018-03-27T14:39:41.235Z,11.73
2018-03-27T14:42:08.693Z,11.13
2018-03-27T14:44:36.207Z,10.73
2018-03-27T14:47:03.614Z,12.30
2018-03-27T14:49:31.066Z,9.97
2018-03-27T14:51:58.530Z,12.40
2018-03-27T14:54:25.986Z,13.27
2018-03-27T14:56:53.468Z,12.10
2018-03-27T14:59:21.685Z,13.23
2018-03-27T15:01:49.137Z,10.30
2018-03-27T15:04:16.606Z,11.53
2018-03-27T15:06:44.054Z,13.77
2018-03-27T15:09:11.525Z,12.43
2018-03-27T15:11:38.977Z,12.80
2018-03-27T15:14:06.453Z,11.87
2018-03-27T15:16:33.902Z,13.03
2018-03-27T15:19:01.371Z,11.33
2018-03-27T15:21:28.830Z,12.43
2018-03-27T15:23:56.302Z,12.13
2018-03-27T15:26:24.522Z,12.60
2018-03-27T15:28:51.993Z,11.87
2018-03-27T15:31:19.459Z,13.20
2018-03-27T15:33:46.917Z,11.87
2018-03-27T15:36:14.374Z,13.60
2018-03-27T15:38:41.843Z,14.87
2018-03-27T15:41:09.302Z,12.40
2018-03-27T15:43:36.771Z,12.30
2018-03-27T15:46:04.990Z,13.23
2018-03-27T15:48:32.453Z,13.17
2018-03-27T15:50:59.918Z,12.93
2018-03-27T15:53:27.392Z,12.27
2018-03-27T15:55:54.843Z,13.93
2018-03-27T15:58:22.315Z,11.27
2018-03-27T16:00:49.765Z,13.40
2018-03-27T16:03:17.230Z,11.70
2018-03-27T16:05:44.699Z,12.73
2018-03-27T16:08:12.939Z,15.20
2018-03-27T16:10:40.393Z,13.70
2018-03-27T16:13:08.629Z,15.13
2018-03-27T16:15:36.085Z,12.73
2018-03-27T16:18:03.558Z,13.43
2018-03-27T16:20:31.017Z,13.20
2018-03-27T16:22:58.487Z,16.27
2018-03-27T16:25:25.945Z,15.20
2018-03-27T16:27:53.409Z,15.00
2018-03-27T16:30:20.866Z,15.23
2018-03-27T16:32:48.317Z,14.50
2018-03-27T16:35:15.791Z,15.20
2018-03-27T16:37:43.250Z,14.97
2018-03-27T16:40:10.709Z,14.70
2018-03-27T16:42:38.173Z,16.67
2018-03-27T16:45:05.643Z,17.00
2018-03-27T16:47:33.861Z,15.20
2018-03-27T16:50:01.337Z,15.27
2018-03-27T16:52:28.795Z,16.57
2018-03-27T16:54:56.270Z,15.63
2018-03-27T16:57:23.726Z,17.20
2018-03-27T16:59:51.196Z,15.00
2018-03-27T17:02:18.652Z,18.20
2018-03-27T17:04:46.122Z,17.70
2018-03-27T17:07:14.337Z,17.17
2018-03-27T17:09:57.431Z,15.67
2018-03-27T17:12:24.881Z,15.47
2018-03-27T17:15:07.159Z,15.80
2018-03-27T17:17:34.620Z,15.20
2018-03-27T17:20:02.074Z,15.07
2018-03-27T17:22:29.540Z,14.53
2018-03-27T17:24:57.000Z,13.77
2018-03-27T17:27:24.455Z,14.50
2018-03-27T17:29:51.917Z,14.83
2018-03-27T17:32:19.378Z,14.17
2018-03-27T17:34:47.610Z,13.77
2018-03-27T17:37:15.063Z,16.10
2018-03-27T17:39:42.536Z,15.67
2018-03-27T17:42:09.989Z,14.67
2018-03-27T17:44:37.461Z,15.47
2018-03-27T17:47:04.921Z,18.37
2018-03-27T17:49:33.158Z,16.53
2018-03-27T17:52:00.605Z,17.03
2018-03-27T17:54:28.077Z,16.13
2018-03-27T17:56:55.540Z,15.63
2018-03-27T17:59:23.010Z,17.23
2018-03-27T18:01:50.494Z,15.97
2018-03-27T18:04:18.722Z,17.00
2018-03-27T18:06:46.191Z,19.40
2018-03-27T18:09:13.655Z,17.83
2018-03-27T18:11:41.134Z,21.23
2018-03-27T18:14:09.366Z,19.40
2018-03-27T18:16:36.850Z,18.43
2018-03-27T18:19:04.301Z,18.87
2018-03-27T18:21:31.758Z,18.30
2018-03-27T18:23:59.319Z,22.80
2018-03-27T18:26:26.723Z,18.73
2018-03-27T18:28:54.183Z,16.50
2018-03-27T18:31:21.681Z,17.47
2018-03-27T18:33:49.134Z,18.17
2018-03-27T18:36:16.602Z,17.13
2018-03-27T18:38:44.059Z,17.53
2018-03-27T18:41:11.528Z,19.13
2018-03-27T18:43:39.756Z,17.90
2018-03-27T18:46:07.222Z,17.57
2018-03-27T18:48:34.733Z,19.43
2018-03-27T18:51:02.193Z,18.27
2018-03-27T18:53:29.641Z,19.37
2018-03-27T18:55:57.101Z,19.70
2018-03-27T18:58:24.549Z,21.00
2018-03-27T19:00:52.782Z,20.10
2018-03-27T19:03:20.239Z,19.60
2018-03-27T19:05:47.705Z,20.37
2018-03-27T19:08:15.150Z,20.23
2018-03-27T19:10:42.609Z,18.77
2018-03-27T19:13:10.065Z,22.10
2018-03-27T19:15:37.538Z,20.50
2018-03-27T19:18:04.999Z,21.13
2018-03-27T19:20:32.481Z,21.53
2018-03-27T19:22:59.937Z,21.77
2018-03-27T19:25:28.172Z,20.57
2018-03-27T19:27:55.621Z,20.73
2018-03-27T19:30:23.860Z,23.33
2018-03-27T19:32:51.317Z,22.00
2018-03-27T19:35:18.777Z,20.07
2018-03-27T19:37:46.238Z,20.70
2018-03-27T19:40:13.701Z,19.80
2018-03-27T19:42:41.150Z,21.13
2018-03-27T19:45:08.610Z,20.80
2018-03-27T19:47:36.062Z,20.50
2018-03-27T19:50:03.523Z,20.30
2018-03-27T19:52:31.016Z,20.70
2018-03-27T19:54:58.479Z,19.47
2018-03-27T19:57:25.929Z,19.50
2018-03-27T19:59:53.404Z,19.77
2018-03-27T20:02:21.635Z,20.63
2018-03-27T20:04:49.090Z,20.80
2018-03-27T20:07:16.559Z,19.97
2018-03-27T20:09:44.020Z,21.67
2018-03-27T20:12:11.486Z,23.37
2018-03-27T20:14:38.932Z,20.77
2018-03-27T20:17:06.402Z,19.67
2018-03-27T20:19:33.860Z,20.97
2018-03-27T20:22:01.385Z,22.17
2018-03-27T20:24:28.817Z,21.80
2018-03-27T20:26:56.291Z,20.77
2018-03-27T20:29:23.746Z,21.30
2018-03-27T20:31:51.202Z,21.93
2018-03-27T20:34:18.654Z,21.93
2018-03-27T20:36:46.118Z,21.03
2018-03-27T20:39:13.580Z,20.10
2018-03-27T20:41:41.053Z,23.07
2018-03-27T20:44:08.508Z,21.00
2018-03-27T20:46:35.965Z,21.80
2018-03-27T20:49:03.491Z,24.17
2018-03-27T20:51:30.896Z,23.63
2018-03-27T20:53:58.348Z,22.63
2018-03-27T20:56:25.806Z,22.20
2018-03-27T20:58:53.285Z,21.43
2018-03-27T21:01:21.522Z,22.90
2018-03-27T21:03:48.974Z,21.00
2018-03-27T21:06:16.442Z,23.30
2018-03-27T21:08:43.893Z,23.83
2018-03-27T21:11:11.357Z,23.13
2018-03-27T21:13:38.809Z,24.00
2018-03-27T21:16:06.269Z,22.30
2018-03-27T21:18:33.718Z,22.40
2018-03-27T21:21:01.177Z,22.67
2018-03-27T21:23:28.648Z,24.30
2018-03-27T21:25:56.098Z,22.80
2018-03-27T21:28:23.553Z,23.70
2018-03-27T21:30:51.007Z,23.20
2018-03-27T21:33:18.470Z,21.60
2018-03-27T21:35:45.932Z,23.30
2018-03-27T21:38:13.385Z,22.00
2018-03-27T21:40:40.838Z,23.83
2018-03-27T21:43:08.305Z,18.80
2018-03-27T21:45:35.753Z,26.53
2018-03-27T21:48:03.211Z,22.87
2018-03-27T21:50:30.663Z,19.70
2018-03-27T21:52:58.126Z,20.87
2018-03-27T21:55:25.589Z,61.07
2018-03-27T21:57:53.051Z,68.57
2018-03-27T22:00:21.277Z,20.67
2018-03-27T22:02:48.757Z,19.37
2018-03-27T22:05:16.218Z,19.77
2018-03-27T22:07:43.676Z,19.50
2018-03-27T22:10:11.136Z,21.63
2018-03-27T22:12:38.608Z,19.50
2018-03-27T22:15:06.056Z,19.50
2018-03-27T22:17:33.522Z,18.20
2018-03-27T22:20:01.745Z,17.63
2018-03-27T22:22:29.196Z,18.37
2018-03-27T22:24:56.655Z,15.67
2018-03-27T22:27:24.104Z,17.03
2018-03-27T22:29:51.587Z,15.83
2018-03-27T22:32:19.033Z,15.83
2018-03-27T22:34:46.502Z,17.40
2018-03-27T22:37:13.960Z,19.00
2018-03-27T22:39:41.417Z,17.90
2018-03-27T22:42:08.867Z,16.20
2018-03-27T22:44:36.316Z,15.33
2018-03-27T22:47:03.773Z,16.20
2018-03-27T22:49:31.226Z,15.60
2018-03-27T22:51:58.693Z,16.53
2018-03-27T22:54:26.149Z,16.43
2018-03-27T22:56:53.605Z,14.63
2018-03-27T22:59:21.057Z,16.00
2018-03-27T23:01:48.520Z,14.50
2018-03-27T23:04:15.974Z,14.30
2018-03-27T23:06:44.214Z,16.13
2018-03-27T23:09:11.673Z,14.63
2018-03-27T23:11:39.129Z,14.30
2018-03-27T23:14:06.585Z,15.63
2018-03-27T23:16:34.050Z,13.60
2018-03-27T23:19:01.572Z,12.43
2018-03-27T23:21:29.027Z,13.10
2018-03-27T23:23:57.258Z,14.60
2018-03-27T23:26:24.718Z,12.90
2018-03-27T23:28:52.170Z,13.53
2018-03-27T23:31:19.625Z,12.73
2018-03-27T23:33:47.077Z,11.73
2018-03-27T23:36:14.542Z,12.20
2018-03-27T23:38:42.002Z,11.83
2018-03-27T23:41:09.470Z,12.20
2018-03-27T23:43:36.926Z,12.17
2018-03-27T23:46:04.406Z,12.23
2018-03-27T23:48:31.857Z,11.67
2018-03-27T23:50:59.313Z,11.80
2018-03-27T23:53:26.781Z,11.10
2018-03-27T23:55:54.997Z,13.73
2018-03-27T23:58:22.465Z,11.70
